Time;durP1;ratioP1;P1;durP2;ratioP2;P2;SDS_P1;SDS_P2;PMS_P1;PMS_P2;Temp;Humidity;BMP_temperature;BMP_pressure;BME280_temperature;BME280_humidity;BME280_pressure;Samples;Min_cycle;Max_cycle;Signal;HPM_P1;HPM_P2
2022/01/25 00:28:42;;;;;;;;;;;23.00;50.30;;;;;;1585736;75;859;-70
2022/01/25 00:30:44;;;;;;;;;;;23.00;50.20;;;;;;1594497;73;1079;-71
2022/01/25 00:32:34;;;;;;;;;;;23.00;50.20;;;;;;1579897;74;1946;-70
2022/01/25 00:34:36;;;;;;;;;;;23.00;50.20;;;;;;1597307;73;708;-71
2022/01/25 00:36:38;;;;;;;;;;;23.00;50.10;;;;;;1584499;73;1142;-70
2022/01/25 00:38:40;;;;;;;;;;;23.00;50.10;;;;;;1579145;75;795;-72
2022/01/25 00:40:42;;;;;;;;;;;23.00;50.00;;;;;;1578357;73;752;-70
2022/01/25 00:42:44;;;;;;;;;;;23.00;50.10;;;;;;1594202;73;755;-70
2022/01/25 00:44:48;;;;;;;;;;;23.00;50.10;;;;;;1588394;73;749;-70
2022/01/25 00:46:49;;;;;;;;;;;22.90;50.00;;;;;;1584151;73;1687;-71
2022/01/25 00:48:54;;;;;;;;;;;22.90;50.00;;;;;;1585976;73;742;-71
2022/01/25 00:51:03;;;;;;;;;;;23.00;49.90;;;;;;1605930;73;1672;-71
2022/01/25 00:55:02;;;;;;;;;;;23.00;50.00;;;;;;1609429;73;823;-72
2022/01/25 00:57:04;;;;;;;;;;;23.00;49.90;;;;;;1598768;72;1130;-76
2022/01/25 00:59:07;;;;;;;;;;;23.00;49.90;;;;;;1580901;73;801;-72
2022/01/25 01:01:08;;;;;;;;;;;22.90;49.80;;;;;;1589607;74;732;-70
2022/01/25 01:03:10;;;;;;;;;;;22.90;49.80;;;;;;1606362;73;807;-71
2022/01/25 01:05:12;;;;;;;;;;;23.00;49.80;;;;;;1588894;73;748;-71
2022/01/25 01:07:16;;;;;;;;;;;22.90;49.70;;;;;;1579817;73;1148;-70
2022/01/25 01:09:18;;;;;;;;;;;23.00;49.80;;;;;;1595308;73;736;-73
2022/01/25 01:11:26;;;;;;;;;;;22.90;49.70;;;;;;1601574;73;725;-72
2022/01/25 01:13:54;;;;;;;;;;;23.00;49.70;;;;;;1592664;73;1929;-75
2022/01/25 01:15:42;;;;;;;;;;;23.00;49.70;;;;;;1579541;73;1333;-71
2022/01/25 01:29:16;;;;;;;;;;;22.90;49.70;;;;;;1577338;73;1655;-70
2022/01/25 01:31:18;;;;;;;;;;;22.90;49.70;;;;;;1592337;73;965;-73
2022/01/25 01:44:11;;;;;;;;;;;22.90;49.60;;;;;;1567516;74;862;-73
2022/01/25 01:48:27;;;;;;;;;;;22.90;49.60;;;;;;1570188;73;1136;-73
2022/01/25 01:50:30;;;;;;;;;;;23.00;49.50;;;;;;1570969;73;1144;-75
2022/01/25 01:52:31;;;;;;;;;;;22.90;49.40;;;;;;1574288;73;1787;-71
2022/01/25 01:54:33;;;;;;;;;;;22.90;49.40;;;;;;1568836;73;1941;-75
2022/01/25 01:56:34;;;;;;;;;;;22.90;49.50;;;;;;1572820;73;1099;-72
2022/01/25 01:58:36;;;;;;;;;;;22.90;49.50;;;;;;1575118;73;907;-71
2022/01/25 02:00:40;;;;;;;;;;;22.90;49.50;;;;;;1568961;73;737;-70
2022/01/25 02:02:42;;;;;;;;;;;22.90;49.50;;;;;;1571301;73;720;-71
2022/01/25 02:04:44;;;;;;;;;;;22.90;49.40;;;;;;1572385;73;846;-71
2022/01/25 02:06:45;;;;;;;;;;;22.90;49.40;;;;;;1575388;73;1193;-73
2022/01/25 02:08:47;;;;;;;;;;;22.90;49.40;;;;;;1581329;73;754;-74
2022/01/25 02:10:49;;;;;;;;;;;22.90;49.40;;;;;;1577233;73;761;-71
2022/01/25 02:12:52;;;;;;;;;;;23.00;49.30;;;;;;1583141;74;1963;-72
2022/01/25 02:14:55;;;;;;;;;;;22.90;49.30;;;;;;1586740;73;789;-72
2022/01/25 02:17:06;;;;;;;;;;;22.90;49.40;;;;;;1574742;73;1154;-71
2022/01/25 02:23:40;;;;;;;;;;;22.90;49.20;;;;;;1578096;73;709;-71
2022/01/25 02:25:42;;;;;;;;;;;22.90;49.20;;;;;;1588653;73;738;-70
2022/01/25 02:27:44;;;;;;;;;;;22.90;49.20;;;;;;1569447;73;1284;-70
2022/01/25 02:29:46;;;;;;;;;;;23.00;49.10;;;;;;1582311;73;891;-71
2022/01/25 02:31:48;;;;;;;;;;;22.90;49.10;;;;;;1572988;73;738;-71
2022/01/25 02:33:50;;;;;;;;;;;22.80;49.00;;;;;;1581296;73;1933;-71
2022/01/25 02:35:52;;;;;;;;;;;23.00;49.00;;;;;;1575606;75;785;-71
2022/01/25 02:37:53;;;;;;;;;;;22.90;49.00;;;;;;1571991;73;1142;-71
2022/01/25 02:39:55;;;;;;;;;;;22.90;49.00;;;;;;1579509;73;784;-74
2022/01/25 02:41:57;;;;;;;;;;;22.90;49.00;;;;;;1577425;73;765;-70
2022/01/25 02:43:59;;;;;;;;;;;22.90;48.90;;;;;;1573064;73;767;-71
2022/01/25 02:48:32;;;;;;;;;;;22.90;48.90;;;;;;1586682;73;1154;-74
2022/01/25 02:50:34;;;;;;;;;;;22.90;48.90;;;;;;1573136;73;681;-74
2022/01/25 02:52:36;;;;;;;;;;;22.80;48.70;;;;;;1583728;73;721;-71
2022/01/25 02:54:40;;;;;;;;;;;22.80;48.70;;;;;;1583454;73;1921;-71
2022/01/25 02:56:43;;;;;;;;;;;22.90;48.90;;;;;;1580627;73;1230;-71
2022/01/25 02:58:44;;;;;;;;;;;22.80;48.70;;;;;;1578953;73;774;-73
2022/01/25 03:00:46;;;;;;;;;;;22.80;48.70;;;;;;1585020;75;717;-71
2022/01/25 03:02:48;;;;;;;;;;;22.90;48.90;;;;;;1580554;75;741;-71
2022/01/25 03:04:50;;;;;;;;;;;22.90;48.80;;;;;;1573955;73;749;-72
2022/01/25 03:06:52;;;;;;;;;;;22.90;48.70;;;;;;1576373;73;1150;-72
2022/01/25 03:08:54;;;;;;;;;;;22.90;48.70;;;;;;1581673;73;745;-72
2022/01/25 03:10:56;;;;;;;;;;;22.80;48.60;;;;;;1586777;73;786;-72
2022/01/25 03:12:57;;;;;;;;;;;22.90;48.70;;;;;;1579016;75;725;-73
2022/01/25 03:17:27;;;;;;;;;;;22.90;48.80;;;;;;1582612;73;1195;-72
2022/01/25 03:19:42;;;;;;;;;;;22.90;48.70;;;;;;1576741;73;1115;-72
2022/01/25 03:23:34;;;;;;;;;;;22.80;48.60;;;;;;1577671;73;874;-73
2022/01/25 03:25:36;;;;;;;;;;;22.80;48.50;;;;;;1576452;73;731;-74
2022/01/25 03:27:38;;;;;;;;;;;22.80;48.50;;;;;;1574743;73;1149;-72
2022/01/25 03:29:40;;;;;;;;;;;22.90;48.70;;;;;;1578239;73;712;-72
2022/01/25 03:31:42;;;;;;;;;;;22.80;48.60;;;;;;1580612;73;713;-72
2022/01/25 03:33:43;;;;;;;;;;;22.80;48.50;;;;;;1581249;73;1937;-72
2022/01/25 03:35:46;;;;;;;;;;;22.80;48.50;;;;;;1580714;73;782;-71
2022/01/25 03:37:48;;;;;;;;;;;22.90;48.60;;;;;;1578486;73;1156;-72
2022/01/25 03:39:50;;;;;;;;;;;22.80;48.50;;;;;;1583901;73;714;-71
2022/01/25 03:41:52;;;;;;;;;;;22.80;48.50;;;;;;1591645;75;743;-71
2022/01/25 03:43:55;;;;;;;;;;;22.80;48.40;;;;;;1580140;73;731;-72
2022/01/25 03:46:10;;;;;;;;;;;22.80;48.40;;;;;;1592616;74;794;-73
2022/01/25 03:50:16;;;;;;;;;;;22.80;48.40;;;;;;1594380;73;810;-71
2022/01/25 03:52:23;;;;;;;;;;;22.80;48.40;;;;;;1584600;75;711;-76
2022/01/25 03:54:22;;;;;;;;;;;22.80;48.50;;;;;;1596490;73;1927;-72
2022/01/25 03:56:24;;;;;;;;;;;22.80;48.50;;;;;;1606034;72;1172;-74
2022/01/25 03:58:26;;;;;;;;;;;22.90;48.60;;;;;;1592939;73;738;-74
2022/01/25 04:00:28;;;;;;;;;;;22.80;48.50;;;;;;1586799;74;713;-72
2022/01/25 04:02:32;;;;;;;;;;;22.80;48.60;;;;;;1586104;73;773;-73
2022/01/25 04:04:35;;;;;;;;;;;22.80;48.60;;;;;;1587056;73;1101;-71
2022/01/25 04:06:37;;;;;;;;;;;22.80;48.50;;;;;;1607352;73;1159;-72
2022/01/25 04:08:39;;;;;;;;;;;22.80;48.50;;;;;;1608157;73;769;-73
2022/01/25 04:10:41;;;;;;;;;;;22.90;48.60;;;;;;1602874;73;781;-75
2022/01/25 04:12:43;;;;;;;;;;;22.80;48.60;;;;;;1609998;73;771;-72
2022/01/25 04:14:45;;;;;;;;;;;22.90;48.60;;;;;;1591173;73;1941;-74
2022/01/25 04:16:58;;;;;;;;;;;22.80;48.50;;;;;;1582919;73;1152;-73
2022/01/25 04:19:12;;;;;;;;;;;22.90;48.60;;;;;;1580580;74;1051;-73
2022/01/25 04:21:26;;;;;;;;;;;22.90;48.60;;;;;;1591547;73;1169;-72
2022/01/25 04:25:35;;;;;;;;;;;22.90;48.60;;;;;;1605709;73;1604;-72
2022/01/25 04:27:37;;;;;;;;;;;22.80;48.40;;;;;;1589489;73;1187;-72
2022/01/25 04:29:39;;;;;;;;;;;22.80;48.50;;;;;;1588492;75;788;-71
2022/01/25 04:31:41;;;;;;;;;;;22.90;48.60;;;;;;1592637;73;783;-72
2022/01/25 04:33:55;;;;;;;;;;;22.90;48.60;;;;;;1594779;73;1905;-71
2022/01/25 04:36:24;;;;;;;;;;;22.80;48.50;;;;;;1600459;73;1669;-74
2022/01/25 04:49:47;;;;;;;;;;;22.80;48.40;;;;;;1586697;75;1683;-73
2022/01/25 04:54:05;;;;;;;;;;;22.80;48.50;;;;;;1571573;73;1929;-73
2022/01/25 04:56:19;;;;;;;;;;;22.80;48.40;;;;;;1591385;73;1106;-71
2022/01/25 04:58:22;;;;;;;;;;;22.80;48.40;;;;;;1596773;73;1668;-71
2022/01/25 05:00:22;;;;;;;;;;;22.80;48.40;;;;;;1579375;73;1154;-71
2022/01/25 05:02:41;;;;;;;;;;;22.80;48.40;;;;;;1580613;73;1729;-70
2022/01/25 05:04:29;;;;;;;;;;;22.90;48.50;;;;;;1573040;73;1722;-73
2022/01/25 05:06:29;;;;;;;;;;;22.80;48.40;;;;;;1587886;73;1553;-73
2022/01/25 05:08:42;;;;;;;;;;;22.80;48.40;;;;;;1589081;73;892;-75
2022/01/25 05:10:48;;;;;;;;;;;22.80;48.40;;;;;;1586906;73;1267;-73
2022/01/25 05:12:52;;;;;;;;;;;22.80;48.30;;;;;;1586803;73;1112;-72
2022/01/25 05:15:01;;;;;;;;;;;22.80;48.30;;;;;;1589937;73;1925;-73
2022/01/25 05:17:03;;;;;;;;;;;22.80;48.30;;;;;;1581053;73;1664;-72
2022/01/25 05:23:40;;;;;;;;;;;22.80;48.30;;;;;;1583203;73;724;-71
2022/01/25 05:25:41;;;;;;;;;;;22.80;48.40;;;;;;1579745;73;721;-73
2022/01/25 05:27:43;;;;;;;;;;;22.80;48.40;;;;;;1583688;73;1147;-71
2022/01/25 05:29:45;;;;;;;;;;;22.80;48.40;;;;;;1572895;75;686;-71
2022/01/25 05:31:47;;;;;;;;;;;22.80;48.40;;;;;;1588449;73;749;-70
2022/01/25 05:33:49;;;;;;;;;;;22.80;48.30;;;;;;1577174;73;866;-71
2022/01/25 05:35:51;;;;;;;;;;;22.80;48.30;;;;;;1580933;73;1926;-69
2022/01/25 05:37:53;;;;;;;;;;;22.80;48.30;;;;;;1575357;73;1149;-70
2022/01/25 05:39:55;;;;;;;;;;;22.80;48.30;;;;;;1588650;73;686;-72
2022/01/25 05:42:15;;;;;;;;;;;22.80;48.30;;;;;;1588503;73;760;-74
2022/01/25 05:44:56;;;;;;;;;;;22.80;48.20;;;;;;1592054;73;1693;-75
2022/01/25 05:46:16;;;;;;;;;;;22.90;48.40;;;;;;1574815;73;1096;-74
2022/01/25 05:48:16;;;;;;;;;;;22.80;48.20;;;;;;1588951;73;1150;-68
2022/01/25 05:50:18;;;;;;;;;;;22.80;48.20;;;;;;1584404;75;695;-71
2022/01/25 05:52:20;;;;;;;;;;;22.90;48.40;;;;;;1597615;73;751;-69
2022/01/25 05:54:22;;;;;;;;;;;22.80;48.20;;;;;;1588092;75;1937;-70
2022/01/25 05:56:23;;;;;;;;;;;22.80;48.10;;;;;;1589330;72;1150;-72
2022/01/25 05:58:25;;;;;;;;;;;22.80;48.10;;;;;;1581807;73;734;-70
2022/01/25 06:00:27;;;;;;;;;;;22.80;48.20;;;;;;1579697;75;741;-70
2022/01/25 06:02:31;;;;;;;;;;;22.80;48.20;;;;;;1586087;75;798;-70
2022/01/25 06:04:33;;;;;;;;;;;22.80;48.20;;;;;;1590354;73;1704;-70
2022/01/25 06:06:35;;;;;;;;;;;22.70;48.20;;;;;;1595748;73;1224;-70
2022/01/25 06:08:36;;;;;;;;;;;22.80;48.20;;;;;;1605160;73;690;-72
2022/01/25 06:10:38;;;;;;;;;;;22.80;48.10;;;;;;1582765;73;747;-72
2022/01/25 06:12:42;;;;;;;;;;;22.80;48.10;;;;;;1592116;73;713;-72
2022/01/25 06:14:44;;;;;;;;;;;22.80;48.10;;;;;;1597044;73;1935;-70
2022/01/25 06:16:46;;;;;;;;;;;22.80;48.10;;;;;;1576995;73;1158;-71
2022/01/25 06:18:48;;;;;;;;;;;22.80;48.10;;;;;;1585093;73;764;-72
2022/01/25 06:20:49;;;;;;;;;;;22.80;48.20;;;;;;1592770;73;731;-71
2022/01/25 06:22:51;;;;;;;;;;;22.80;48.10;;;;;;1590386;73;800;-74
2022/01/25 06:24:53;;;;;;;;;;;22.80;48.20;;;;;;1608593;73;821;-75
2022/01/25 06:26:55;;;;;;;;;;;22.80;48.10;;;;;;1578042;73;1187;-72
2022/01/25 06:28:57;;;;;;;;;;;22.80;48.10;;;;;;1579520;73;809;-71
2022/01/25 06:30:59;;;;;;;;;;;22.80;48.10;;;;;;1579334;73;728;-73
2022/01/25 06:33:01;;;;;;;;;;;22.90;48.30;;;;;;1582034;73;720;-71
2022/01/25 06:35:04;;;;;;;;;;;22.90;48.30;;;;;;1585135;73;1896;-71
2022/01/25 06:37:05;;;;;;;;;;;22.80;48.10;;;;;;1587473;73;1139;-71
2022/01/25 06:39:07;;;;;;;;;;;22.90;48.30;;;;;;1581963;75;773;-71
2022/01/25 06:41:10;;;;;;;;;;;22.90;48.30;;;;;;1581099;75;778;-70
2022/01/25 06:43:12;;;;;;;;;;;22.90;48.30;;;;;;1588722;73;783;-72
2022/01/25 06:45:17;;;;;;;;;;;22.90;48.20;;;;;;1595724;73;798;-71
2022/01/25 06:47:17;;;;;;;;;;;22.90;48.20;;;;;;1586511;73;1150;-71
2022/01/25 06:49:19;;;;;;;;;;;22.90;48.20;;;;;;1582027;73;723;-77
2022/01/25 06:51:21;;;;;;;;;;;22.90;48.20;;;;;;1591632;73;749;-72
2022/01/25 06:53:23;;;;;;;;;;;22.90;48.20;;;;;;1591863;75;771;-72
2022/01/25 06:55:25;;;;;;;;;;;23.00;48.20;;;;;;1599475;73;1948;-72
2022/01/25 06:57:27;;;;;;;;;;;22.90;48.30;;;;;;1584543;73;1065;-68
2022/01/25 06:59:29;;;;;;;;;;;22.90;48.30;;;;;;1581874;73;720;-70
2022/01/25 07:01:31;;;;;;;;;;;23.00;48.40;;;;;;1612112;72;789;-71
2022/01/25 07:03:33;;;;;;;;;;;23.00;48.30;;;;;;1606938;73;702;-71
2022/01/25 07:05:34;;;;;;;;;;;23.00;48.30;;;;;;1579903;73;798;-72
2022/01/25 07:07:37;;;;;;;;;;;23.00;48.30;;;;;;1590538;73;1134;-72
2022/01/25 07:09:39;;;;;;;;;;;22.90;48.30;;;;;;1606266;73;657;-71
2022/01/25 07:11:41;;;;;;;;;;;22.90;48.30;;;;;;1581427;73;662;-76
2022/01/25 07:13:43;;;;;;;;;;;22.90;48.40;;;;;;1584584;73;752;-81
2022/01/25 07:15:45;;;;;;;;;;;22.90;48.40;;;;;;1595157;73;1929;-72
2022/01/25 07:17:47;;;;;;;;;;;22.90;48.30;;;;;;1606388;72;1110;-71
2022/01/25 07:19:49;;;;;;;;;;;22.90;48.30;;;;;;1596812;73;727;-73
2022/01/25 07:21:51;;;;;;;;;;;22.90;48.30;;;;;;1600252;73;818;-73
2022/01/25 07:23:53;;;;;;;;;;;22.90;48.30;;;;;;1595404;73;1083;-70
2022/01/25 07:25:54;;;;;;;;;;;22.90;48.30;;;;;;1597706;73;791;-71
2022/01/25 07:27:56;;;;;;;;;;;22.90;48.20;;;;;;1600516;73;1221;-71
2022/01/25 07:29:58;;;;;;;;;;;22.90;48.10;;;;;;1588966;73;1135;-72
2022/01/25 07:32:00;;;;;;;;;;;22.90;48.10;;;;;;1601067;73;810;-72
2022/01/25 07:34:02;;;;;;;;;;;22.90;48.10;;;;;;1599231;73;760;-71
2022/01/25 07:36:05;;;;;;;;;;;23.00;48.00;;;;;;1581593;73;1972;-72
2022/01/25 07:38:07;;;;;;;;;;;23.00;48.00;;;;;;1593557;73;1147;-71
2022/01/25 07:40:10;;;;;;;;;;;23.00;47.80;;;;;;1592399;73;767;-71
2022/01/25 07:42:12;;;;;;;;;;;23.00;47.80;;;;;;1600537;73;727;-70
2022/01/25 07:44:15;;;;;;;;;;;23.00;47.80;;;;;;1600116;73;778;-70
2022/01/25 07:46:17;;;;;;;;;;;22.90;47.80;;;;;;1589643;73;736;-71
2022/01/25 07:48:19;;;;;;;;;;;23.00;47.80;;;;;;1586405;73;1048;-70
2022/01/25 07:50:21;;;;;;;;;;;23.00;47.80;;;;;;1588848;73;885;-70
2022/01/25 07:52:23;;;;;;;;;;;23.00;47.80;;;;;;1588152;73;732;-73
2022/01/25 07:54:25;;;;;;;;;;;23.00;47.80;;;;;;1601245;73;722;-74
2022/01/25 07:56:27;;;;;;;;;;;23.00;47.80;;;;;;1592113;73;1919;-73
2022/01/25 07:58:29;;;;;;;;;;;23.00;47.70;;;;;;1596979;73;713;-74
2022/01/25 08:00:31;;;;;;;;;;;23.00;47.70;;;;;;1596446;73;805;-71
2022/01/25 08:02:32;;;;;;;;;;;23.00;47.70;;;;;;1584298;74;689;-70
2022/01/25 08:04:34;;;;;;;;;;;23.00;47.70;;;;;;1589081;73;1058;-77
2022/01/25 08:06:36;;;;;;;;;;;23.00;47.60;;;;;;1587420;73;1091;-69
2022/01/25 08:08:38;;;;;;;;;;;23.00;47.60;;;;;;1586154;74;741;-70
2022/01/25 08:10:40;;;;;;;;;;;23.00;47.60;;;;;;1589155;73;716;-70
2022/01/25 08:12:42;;;;;;;;;;;23.00;47.60;;;;;;1589481;73;652;-69
2022/01/25 08:14:44;;;;;;;;;;;23.00;47.60;;;;;;1589805;73;1098;-72
2022/01/25 08:16:48;;;;;;;;;;;23.10;47.60;;;;;;1593194;73;1945;-72
2022/01/25 08:18:49;;;;;;;;;;;23.00;47.50;;;;;;1587986;73;1015;-69
2022/01/25 08:20:51;;;;;;;;;;;23.00;47.50;;;;;;1594003;73;773;-70
2022/01/25 08:22:53;;;;;;;;;;;23.00;47.50;;;;;;1591433;73;821;-70
2022/01/25 08:24:55;;;;;;;;;;;23.00;47.60;;;;;;1597525;73;799;-70
2022/01/25 08:26:57;;;;;;;;;;;23.00;47.70;;;;;;1593464;73;1170;-72
2022/01/25 08:28:59;;;;;;;;;;;23.00;47.70;;;;;;1588302;74;733;-74
2022/01/25 08:31:01;;;;;;;;;;;23.00;47.70;;;;;;1593985;73;820;-69
2022/01/25 08:33:02;;;;;;;;;;;23.00;47.60;;;;;;1595055;73;716;-69
2022/01/25 08:35:04;;;;;;;;;;;23.10;47.80;;;;;;1590435;73;1937;-68
2022/01/25 08:37:06;;;;;;;;;;;23.00;47.60;;;;;;1589821;73;1173;-69
2022/01/25 08:39:08;;;;;;;;;;;23.10;47.70;;;;;;1589201;73;773;-70
2022/01/25 08:41:10;;;;;;;;;;;23.10;47.70;;;;;;1580837;73;771;-70
2022/01/25 08:43:12;;;;;;;;;;;23.00;47.60;;;;;;1591811;73;669;-69
2022/01/25 08:45:14;;;;;;;;;;;23.00;47.60;;;;;;1599053;73;785;-70
2022/01/25 08:47:16;;;;;;;;;;;23.00;47.20;;;;;;1591240;73;1168;-70
2022/01/25 08:49:18;;;;;;;;;;;22.90;46.80;;;;;;1594268;73;816;-68
2022/01/25 08:51:20;;;;;;;;;;;22.90;47.10;;;;;;1592978;73;743;-67
2022/01/25 08:53:21;;;;;;;;;;;22.90;47.10;;;;;;1575434;74;714;-72
2022/01/25 08:55:23;;;;;;;;;;;22.90;47.10;;;;;;1591435;73;1926;-71
2022/01/25 08:57:26;;;;;;;;;;;22.80;46.70;;;;;;1589008;73;1146;-72
2022/01/25 08:59:28;;;;;;;;;;;22.80;46.20;;;;;;1593722;73;738;-72
2022/01/25 09:01:29;;;;;;;;;;;22.80;45.70;;;;;;1593121;73;964;-71
2022/01/25 09:03:31;;;;;;;;;;;22.80;45.50;;;;;;1590569;73;686;-72
2022/01/25 09:05:34;;;;;;;;;;;22.70;45.00;;;;;;1601078;73;770;-71
2022/01/25 09:07:36;;;;;;;;;;;22.70;44.80;;;;;;1598427;73;1188;-71
2022/01/25 09:09:39;;;;;;;;;;;22.60;44.50;;;;;;1584851;73;741;-69
2022/01/25 09:11:41;;;;;;;;;;;22.60;44.20;;;;;;1604011;73;767;-75
2022/01/25 09:13:43;;;;;;;;;;;22.60;43.90;;;;;;1594822;73;705;-71
2022/01/25 09:15:45;;;;;;;;;;;22.60;43.40;;;;;;1594583;73;1925;-71
2022/01/25 09:17:47;;;;;;;;;;;22.60;43.00;;;;;;1594136;73;1140;-71
2022/01/25 09:19:49;;;;;;;;;;;22.50;42.40;;;;;;1589018;73;714;-71
2022/01/25 09:21:51;;;;;;;;;;;22.40;41.70;;;;;;1602137;73;733;-72
2022/01/25 09:23:54;;;;;;;;;;;22.40;41.30;;;;;;1593456;73;1022;-71
2022/01/25 09:25:56;;;;;;;;;;;22.30;40.80;;;;;;1601768;73;618;-71
2022/01/25 09:27:58;;;;;;;;;;;22.30;40.60;;;;;;1600696;73;1182;-72
2022/01/25 09:30:00;;;;;;;;;;;22.20;40.20;;;;;;1587747;73;780;-72
2022/01/25 09:32:02;;;;;;;;;;;22.20;39.90;;;;;;1596557;73;768;-71
2022/01/25 09:34:04;;;;;;;;;;;22.10;39.60;;;;;;1595250;73;880;-72
2022/01/25 09:36:05;;;;;;;;;;;22.10;39.30;;;;;;1597030;73;1918;-71
2022/01/25 09:38:08;;;;;;;;;;;22.10;39.20;;;;;;1589291;73;1155;-72
2022/01/25 09:40:10;;;;;;;;;;;22.00;38.70;;;;;;1592780;73;759;-72
2022/01/25 09:42:12;;;;;;;;;;;22.00;38.60;;;;;;1595717;73;858;-71
2022/01/25 09:44:15;;;;;;;;;;;21.90;38.40;;;;;;1592422;73;851;-71
2022/01/25 09:46:17;;;;;;;;;;;22.00;38.30;;;;;;1590838;73;698;-72
2022/01/25 09:48:19;;;;;;;;;;;21.90;38.10;;;;;;1594019;73;1069;-71
2022/01/25 09:50:21;;;;;;;;;;;21.80;37.80;;;;;;1592695;73;690;-71
2022/01/25 09:52:22;;;;;;;;;;;21.80;37.70;;;;;;1589558;73;926;-71
2022/01/25 09:54:24;;;;;;;;;;;21.80;37.60;;;;;;1596931;73;662;-71
2022/01/25 09:56:26;;;;;;;;;;;21.80;37.60;;;;;;1591011;73;1925;-72
2022/01/25 09:58:28;;;;;;;;;;;21.70;37.50;;;;;;1602593;73;941;-71
2022/01/25 10:00:30;;;;;;;;;;;21.70;37.50;;;;;;1597822;73;791;-71
2022/01/25 10:02:43;;;;;;;;;;;21.70;37.40;;;;;;1603951;73;729;-71
2022/01/25 10:04:49;;;;;;;;;;;21.70;37.30;;;;;;1585561;73;2033;-71
2022/01/25 10:06:47;;;;;;;;;;;21.70;37.30;;;;;;1590307;73;1620;-71
2022/01/25 10:08:50;;;;;;;;;;;21.70;37.30;;;;;;1589490;73;1943;-72
2022/01/25 10:10:54;;;;;;;;;;;21.60;37.20;;;;;;1593965;73;723;-71
2022/01/25 10:12:57;;;;;;;;;;;21.60;37.20;;;;;;1583993;73;1821;-72
2022/01/25 10:15:06;;;;;;;;;;;21.50;37.20;;;;;;1590792;73;762;-71
2022/01/25 10:17:07;;;;;;;;;;;21.50;37.10;;;;;;1586698;73;1903;-72
2022/01/25 10:19:10;;;;;;;;;;;21.50;37.00;;;;;;1568651;75;741;-71
2022/01/25 10:21:17;;;;;;;;;;;21.50;37.00;;;;;;1594609;73;1044;-71
2022/01/25 10:23:30;;;;;;;;;;;21.40;36.80;;;;;;1597588;73;1117;-71
2022/01/25 10:25:30;;;;;;;;;;;21.40;36.80;;;;;;1589256;73;1652;-71
2022/01/25 10:29:53;;;;;;;;;;;21.40;36.80;;;;;;1574783;73;1670;-71
2022/01/25 10:31:59;;;;;;;;;;;21.30;36.80;;;;;;1582520;73;719;-71
2022/01/25 10:34:01;;;;;;;;;;;21.40;36.80;;;;;;1579670;73;708;-71
2022/01/25 10:36:13;;;;;;;;;;;21.30;36.70;;;;;;1585140;73;1926;-69
2022/01/25 10:38:19;;;;;;;;;;;21.40;36.70;;;;;;1577290;73;1158;-72
2022/01/25 10:40:38;;;;;;;;;;;21.30;36.70;;;;;;1582300;73;678;-72
2022/01/25 10:42:41;;;;;;;;;;;21.20;36.50;;;;;;1575053;74;1574;-71
2022/01/25 10:44:47;;;;;;;;;;;21.30;36.60;;;;;;1573825;73;772;-71
2022/01/25 10:46:49;;;;;;;;;;;21.30;36.50;;;;;;1575039;73;1112;-70
2022/01/25 10:48:52;;;;;;;;;;;21.20;36.40;;;;;;1583939;73;745;-71
2022/01/25 10:50:56;;;;;;;;;;;21.20;36.30;;;;;;1581782;73;791;-71
2022/01/25 10:53:05;;;;;;;;;;;21.20;36.40;;;;;;1571656;73;1875;-71
2022/01/25 10:55:07;;;;;;;;;;;21.20;36.30;;;;;;1575306;73;715;-71
2022/01/25 10:57:19;;;;;;;;;;;21.20;36.30;;;;;;1578169;73;1941;-71
2022/01/25 10:59:24;;;;;;;;;;;21.20;36.20;;;;;;1584634;73;676;-71
2022/01/25 11:01:36;;;;;;;;;;;21.10;36.30;;;;;;1577439;73;770;-68
2022/01/25 11:03:39;;;;;;;;;;;21.20;36.20;;;;;;1598493;73;649;-71
2022/01/25 11:05:46;;;;;;;;;;;21.20;36.20;;;;;;1581276;72;900;-71
2022/01/25 11:07:48;;;;;;;;;;;21.10;36.20;;;;;;1578244;73;1173;-71
2022/01/25 11:09:53;;;;;;;;;;;21.20;36.10;;;;;;1581000;73;781;-71
2022/01/25 11:11:56;;;;;;;;;;;21.10;36.00;;;;;;1579478;73;1611;-71
2022/01/25 11:14:49;;;;;;;;;;;21.10;36.00;;;;;;1587278;73;770;-71
2022/01/25 11:16:03;;;;;;;;;;;21.10;36.00;;;;;;1581105;73;1922;-71
2022/01/25 11:18:05;;;;;;;;;;;21.10;36.00;;;;;;1595880;73;2038;-69
2022/01/25 11:20:08;;;;;;;;;;;21.10;36.00;;;;;;1589341;73;711;-70
2022/01/25 11:22:17;;;;;;;;;;;21.00;35.90;;;;;;1595119;73;791;-70
2022/01/25 11:24:17;;;;;;;;;;;21.00;35.90;;;;;;1587796;73;1611;-71
2022/01/25 11:26:19;;;;;;;;;;;21.00;35.90;;;;;;1594309;73;784;-70
2022/01/25 11:28:21;;;;;;;;;;;21.10;35.90;;;;;;1587193;73;1040;-70
2022/01/25 11:30:23;;;;;;;;;;;21.00;35.80;;;;;;1576792;74;790;-70
2022/01/25 11:32:26;;;;;;;;;;;21.00;35.80;;;;;;1588951;73;1076;-70
2022/01/25 11:34:28;;;;;;;;;;;21.00;35.70;;;;;;1599183;73;742;-71
2022/01/25 11:36:31;;;;;;;;;;;21.00;35.70;;;;;;1592513;73;1958;-71
2022/01/25 11:38:34;;;;;;;;;;;21.00;35.70;;;;;;1577237;73;744;-71
2022/01/25 11:40:39;;;;;;;;;;;20.90;35.70;;;;;;1583654;73;675;-70
2022/01/25 11:42:42;;;;;;;;;;;20.90;35.60;;;;;;1586915;73;1783;-71
2022/01/25 11:44:57;;;;;;;;;;;21.00;35.60;;;;;;1584115;73;1910;-69
2022/01/25 11:47:10;;;;;;;;;;;20.90;35.60;;;;;;1581277;73;1147;-69
2022/01/25 11:49:17;;;;;;;;;;;20.90;35.60;;;;;;1575876;73;736;-72
2022/01/25 11:51:19;;;;;;;;;;;20.90;35.60;;;;;;1575780;74;793;-70
2022/01/25 11:53:21;;;;;;;;;;;20.80;35.50;;;;;;1572672;73;756;-71
2022/01/25 11:55:27;;;;;;;;;;;20.80;35.40;;;;;;1561487;75;1428;-69
2022/01/25 11:57:29;;;;;;;;;;;20.80;35.30;;;;;;1584807;73;1957;-71
2022/01/25 11:59:34;;;;;;;;;;;20.90;35.20;;;;;;1590826;73;724;-69
2022/01/25 12:01:36;;;;;;;;;;;20.80;36.10;;;;;;1593601;73;784;-70
2022/01/25 12:03:44;;;;;;;;;;;21.00;37.30;;;;;;1602520;73;767;-67
2022/01/25 12:05:55;;;;;;;;;;;21.00;37.90;;;;;;1585836;73;2052;-70
2022/01/25 12:08:06;;;;;;;;;;;21.10;38.60;;;;;;1582489;73;1163;-68
2022/01/25 12:10:14;;;;;;;;;;;21.30;39.40;;;;;;1585885;73;764;-68
2022/01/25 12:12:17;;;;;;;;;;;21.30;39.90;;;;;;1567141;73;1060;-69
2022/01/25 12:14:23;;;;;;;;;;;21.40;40.00;;;;;;1592871;73;714;-71
2022/01/25 12:16:29;;;;;;;;;;;21.50;40.30;;;;;;1588753;73;1892;-69
2022/01/25 12:18:49;;;;;;;;;;;21.60;40.00;;;;;;1584655;73;742;-66
2022/01/25 12:20:51;;;;;;;;;;;21.60;40.00;;;;;;1593205;73;766;-66
2022/01/25 12:23:06;;;;;;;;;;;21.70;40.50;;;;;;1595359;73;705;-66
2022/01/25 12:25:22;;;;;;;;;;;21.70;40.70;;;;;;1587405;73;899;-66
2022/01/25 12:27:23;;;;;;;;;;;21.60;40.80;;;;;;1593578;73;1566;-68
2022/01/25 12:29:30;;;;;;;;;;;21.60;41.20;;;;;;1590509;73;1551;-68
2022/01/25 12:31:31;;;;;;;;;;;21.70;41.80;;;;;;1591161;73;803;-68
2022/01/25 12:33:33;;;;;;;;;;;21.70;41.90;;;;;;1572876;75;1254;-66
2022/01/25 12:35:42;;;;;;;;;;;21.70;42.30;;;;;;1602970;73;726;-69
2022/01/25 12:37:52;;;;;;;;;;;21.80;42.70;;;;;;1589482;73;1906;-68
2022/01/25 12:39:50;;;;;;;;;;;21.70;43.00;;;;;;1589755;73;1535;-67
2022/01/25 12:41:52;;;;;;;;;;;21.70;43.10;;;;;;1584234;74;779;-67
2022/01/25 12:43:54;;;;;;;;;;;21.70;43.40;;;;;;1591662;73;707;-65
2022/01/25 12:45:57;;;;;;;;;;;21.70;43.70;;;;;;1595524;73;748;-66
2022/01/25 12:48:07;;;;;;;;;;;21.80;43.80;;;;;;1595554;73;1858;-72
2022/01/25 12:50:09;;;;;;;;;;;21.70;44.00;;;;;;1586547;73;1025;-65
2022/01/25 12:52:14;;;;;;;;;;;21.70;44.10;;;;;;1594200;73;791;-65
2022/01/25 12:54:15;;;;;;;;;;;21.70;44.10;;;;;;1594089;73;1632;-67
2022/01/25 12:56:18;;;;;;;;;;;21.80;43.80;;;;;;1592903;73;833;-69
2022/01/25 12:58:21;;;;;;;;;;;21.80;43.80;;;;;;1596738;73;1936;-66
2022/01/25 13:00:25;;;;;;;;;;;21.80;43.90;;;;;;1588045;73;702;-66
2022/01/25 13:02:29;;;;;;;;;;;21.80;43.90;;;;;;1581505;74;1934;-67
2022/01/25 13:04:30;;;;;;;;;;;21.80;43.90;;;;;;1596983;73;1647;-66
2022/01/25 13:06:32;;;;;;;;;;;21.80;44.00;;;;;;1595542;73;1137;-67
2022/01/25 13:08:35;;;;;;;;;;;21.80;44.10;;;;;;1586114;73;744;-67
2022/01/25 13:10:37;;;;;;;;;;;21.80;44.00;;;;;;1588003;73;661;-66
2022/01/25 13:12:56;;;;;;;;;;;21.80;44.00;;;;;;1594377;73;815;-66
2022/01/25 13:15:02;;;;;;;;;;;21.90;44.20;;;;;;1596789;73;1624;-71
2022/01/25 13:16:54;;;;;;;;;;;21.90;44.20;;;;;;1594380;73;1935;-66
2022/01/25 13:18:57;;;;;;;;;;;21.80;44.10;;;;;;1595295;73;830;-67
2022/01/25 13:21:01;;;;;;;;;;;21.80;44.10;;;;;;1583389;75;790;-71
2022/01/25 13:23:03;;;;;;;;;;;21.80;44.10;;;;;;1599193;73;1405;-66
2022/01/25 13:25:14;;;;;;;;;;;21.90;44.20;;;;;;1593646;73;793;-67
2022/01/25 13:27:13;;;;;;;;;;;21.80;44.10;;;;;;1596837;73;1726;-69
2022/01/25 13:31:35;;;;;;;;;;;21.80;44.10;;;;;;1594617;73;1628;-66
2022/01/25 13:33:37;;;;;;;;;;;21.80;44.10;;;;;;1582452;73;744;-69
2022/01/25 13:35:41;;;;;;;;;;;21.80;44.10;;;;;;1577877;73;747;-68
2022/01/25 13:37:43;;;;;;;;;;;21.80;44.10;;;;;;1593650;73;1940;-67
2022/01/25 13:39:47;;;;;;;;;;;21.80;44.10;;;;;;1580344;73;645;-68
2022/01/25 13:41:53;;;;;;;;;;;21.80;44.10;;;;;;1597516;73;1810;-67
2022/01/25 13:46:06;;;;;;;;;;;21.80;44.10;;;;;;1590244;73;882;-67
2022/01/25 13:48:09;;;;;;;;;;;21.80;44.20;;;;;;1589362;73;1154;-67
2022/01/25 13:50:11;;;;;;;;;;;21.80;44.20;;;;;;1593088;73;745;-70